PWSweather.com
Personal Weather Stations
Station Observations
ALPACACOMFORTSENSOR
Vienna Side Of Pfafftown, Pfafftown, NC 27040

Vienna Side Of PfafftownPfafftown, NC 27040

Lat: 36.15213, Lon: -80.399782

Elevation: 895

Station Type: Davis Vantage Vue Pro

Latest ConditionsUpdated 10:35:00 AM EDT Tuesday, Jul 23, 2019
Currently Today's Max Today's Min Today's Average
Temperature 72.1°F22.3°C 72.4°F22.4°C 70.9°F21.6°C 71.4°F21.9°C
Dew Point 70.6°F21.4°C 70.9°F21.6°C 69.3°F20.7°C 70.0°F21.1°C
Winds Calm Calm 8.0 mph -12.9 kmh - - 0.8 mph 1.3 kmh
Wind Gusts -- 16.0 mph25.7 kmh - -
Humidity 95% 96% 94% 95%
Pressure 29.81 in1009.5 mb 29.86 in1011.2 mb 29.80 in1009.1 mb -
Precipitation - 0.57 in14.5 mm - -
Hour Temp Dew Point Humidity Winds Wind Gusts Pressure Precip Precip Rate Daily Precip Total
10:35 AM 72.1°F22.3°C 70.6°F21.4°C 95% Calm Calm -- 29.81 in1009.5 mb 0.05 in1.3 mm 0.00 in0.0 mm 0.57 in14.5 mm
10:30 AM 71.9°F22.2°C 70.4°F21.3°C 95% Calm Calm -- 29.81 in1009.5 mb 0.19 in4.8 mm 0.00 in0.0 mm 0.57 in14.5 mm
10:25 AM 71.9°F22.2°C 70.4°F21.3°C 95% Calm Calm 1.0 mph1.6 kmh 29.81 in1009.5 mb 0.23 in5.8 mm 0.00 in0.0 mm 0.56 in14.2 mm
10:20 AM 71.9°F22.2°C 70.4°F21.3°C 95% 0.1 mph NE0.2 kmh NE 1.0 mph1.6 kmh 29.81 in1009.5 mb 0.24 in6.1 mm 0.00 in0.0 mm 0.56 in14.2 mm
10:15 AM 71.9°F22.2°C 70.4°F21.3°C 95% Calm Calm -- 29.81 in1009.5 mb 0.24 in6.1 mm 0.12 in3.0 mm 0.55 in14.0 mm
10:10 AM 71.9°F22.2°C 70.7°F21.5°C 96% Calm Calm -- 29.81 in1009.5 mb 0.23 in5.8 mm 0.00 in0.0 mm 0.54 in13.7 mm
10:05 AM 71.8°F22.1°C 70.6°F21.4°C 96% Calm Calm -- 29.81 in1009.5 mb 0.23 in5.8 mm 0.00 in0.0 mm 0.53 in13.5 mm
10:00 AM 71.9°F22.2°C 70.7°F21.5°C 96% Calm Calm 2.0 mph3.2 kmh 29.81 in1009.5 mb 0.24 in6.1 mm 0.00 in0.0 mm 0.53 in13.5 mm
09:55 AM 72.0°F22.2°C 70.8°F21.6°C 96% Calm Calm -- 29.82 in1009.8 mb 0.24 in6.1 mm 0.00 in0.0 mm 0.53 in13.5 mm
09:50 AM 71.9°F22.2°C 70.7°F21.5°C 96% Calm Calm -- 29.82 in1009.8 mb 0.24 in6.1 mm 0.00 in0.0 mm 0.53 in13.5 mm
09:45 AM 71.7°F22.1°C 70.5°F21.4°C 96% Calm Calm -- 29.82 in1009.8 mb 0.24 in6.1 mm 0.00 in0.0 mm 0.53 in13.5 mm
09:40 AM 71.7°F22.1°C 70.5°F21.4°C 96% Calm Calm 2.0 mph3.2 kmh 29.82 in1009.8 mb 0.24 in6.1 mm 0.12 in3.0 mm 0.53 in13.5 mm
09:35 AM 71.7°F22.1°C 70.5°F21.4°C 96% 0.6 mph SSE1.0 kmh SSE 2.0 mph3.2 kmh 29.81 in1009.5 mb 0.23 in5.8 mm 1.68 in42.7 mm 0.52 in13.2 mm
09:30 AM 71.7°F22.1°C 70.5°F21.4°C 96% 0.2 mph SSE0.3 kmh SSE 2.0 mph3.2 kmh 29.82 in1009.8 mb 0.09 in2.3 mm 0.60 in15.2 mm 0.38 in9.7 mm
09:25 AM 71.7°F22.1°C 70.5°F21.4°C 96% Calm Calm 3.0 mph4.8 kmh 29.81 in1009.5 mb 0.04 in1.0 mm 0.12 in3.0 mm 0.33 in8.4 mm
09:20 AM 71.7°F22.1°C 70.5°F21.4°C 96% Calm Calm 2.0 mph3.2 kmh 29.82 in1009.8 mb 0.03 in0.8 mm 0.12 in3.0 mm 0.32 in8.1 mm
09:15 AM 71.6°F22.0°C 70.4°F21.3°C 96% 0.2 mph ENE0.3 kmh ENE 2.0 mph3.2 kmh 29.82 in1009.8 mb 0.02 in0.5 mm 0.00 in0.0 mm 0.31 in7.9 mm
09:10 AM 71.7°F22.1°C 70.5°F21.4°C 96% 0.1 mph ENE0.2 kmh ENE 2.0 mph3.2 kmh 29.82 in1009.8 mb 0.02 in0.5 mm 0.12 in3.0 mm 0.31 in7.9 mm
09:05 AM 71.7°F22.1°C 70.5°F21.4°C 96% Calm Calm -- 29.83 in1010.2 mb 0.01 in0.3 mm 0.12 in3.0 mm 0.30 in7.6 mm
09:00 AM 71.7°F22.1°C 70.5°F21.4°C 96% Calm Calm -- 29.82 in1009.8 mb 0.00 in0.0 mm 0.00 in0.0 mm 0.29 in7.4 mm
08:55 AM 71.8°F22.1°C 70.6°F21.4°C 96% Calm Calm -- 29.82 in1009.8 mb 0.00 in0.0 mm 0.00 in0.0 mm 0.29 in7.4 mm
08:50 AM 71.7°F22.1°C 70.5°F21.4°C 96% Calm Calm -- 29.82 in1009.8 mb 0.00 in0.0 mm 0.00 in0.0 mm 0.29 in7.4 mm
08:45 AM 71.7°F22.1°C 70.5°F21.4°C 96% Calm Calm -- 29.82 in1009.8 mb 0.00 in0.0 mm 0.00 in0.0 mm 0.29 in7.4 mm
08:40 AM 71.7°F22.1°C 70.5°F21.4°C 96% Calm Calm -- 29.82 in1009.8 mb 0.00 in0.0 mm 0.00 in0.0 mm 0.29 in7.4 mm
08:35 AM 71.5°F21.9°C 70.3°F21.3°C 96% Calm Calm -- 29.82 in1009.8 mb 0.00 in0.0 mm 0.00 in0.0 mm 0.29 in7.4 mm
08:30 AM 71.5°F21.9°C 70.3°F21.3°C 96% Calm Calm -- 29.82 in1009.8 mb 0.00 in0.0 mm 0.00 in0.0 mm 0.29 in7.4 mm
08:25 AM 71.5°F21.9°C 70.3°F21.3°C 96% Calm Calm -- 29.82 in1009.8 mb 0.00 in0.0 mm 0.00 in0.0 mm 0.29 in7.4 mm
08:20 AM 71.4°F21.9°C 70.2°F21.2°C 96% Calm Calm -- 29.81 in1009.5 mb 0.00 in0.0 mm 0.00 in0.0 mm 0.29 in7.4 mm
08:15 AM 71.4°F21.9°C 70.2°F21.2°C 96% Calm Calm -- 29.81 in1009.5 mb 0.00 in0.0 mm 0.00 in0.0 mm 0.29 in7.4 mm
08:10 AM 71.3°F21.8°C 70.1°F21.2°C 96% Calm Calm -- 29.81 in1009.5 mb 0.00 in0.0 mm 0.00 in0.0 mm 0.29 in7.4 mm
08:05 AM 71.3°F21.8°C 70.1°F21.2°C 96% Calm Calm -- 29.81 in1009.5 mb 0.00 in0.0 mm 0.00 in0.0 mm 0.29 in7.4 mm
08:00 AM 71.3°F21.8°C 70.1°F21.2°C 96% Calm Calm -- 29.81 in1009.5 mb 0.00 in0.0 mm 0.00 in0.0 mm 0.29 in7.4 mm
07:55 AM 71.2°F21.8°C 70.0°F21.1°C 96% Calm Calm -- 29.81 in1009.5 mb 0.00 in0.0 mm 0.00 in0.0 mm 0.29 in7.4 mm
07:50 AM 71.2°F21.8°C 70.0°F21.1°C 96% Calm Calm -- 29.82 in1009.8 mb 0.02 in0.5 mm 0.00 in0.0 mm 0.29 in7.4 mm
07:45 AM 71.2°F21.8°C 70.0°F21.1°C 96% Calm Calm -- 29.82 in1009.8 mb 0.04 in1.0 mm 0.00 in0.0 mm 0.29 in7.4 mm
07:40 AM 71.1°F21.7°C 69.9°F21.1°C 96% Calm Calm -- 29.81 in1009.5 mb 0.04 in1.0 mm 0.00 in0.0 mm 0.29 in7.4 mm
07:35 AM 71.1°F21.7°C 69.9°F21.1°C 96% Calm Calm -- 29.81 in1009.5 mb 0.06 in1.5 mm 0.00 in0.0 mm 0.29 in7.4 mm
07:30 AM 71.1°F21.7°C 69.9°F21.1°C 96% Calm Calm -- 29.81 in1009.5 mb 0.06 in1.5 mm 0.00 in0.0 mm 0.29 in7.4 mm
07:25 AM 71.1°F21.7°C 69.9°F21.1°C 96% Calm Calm -- 29.81 in1009.5 mb 0.06 in1.5 mm 0.00 in0.0 mm 0.29 in7.4 mm
07:20 AM 71.0°F21.7°C 69.8°F21.0°C 96% Calm Calm -- 29.81 in1009.5 mb 0.06 in1.5 mm 0.00 in0.0 mm 0.29 in7.4 mm
07:15 AM 71.0°F21.7°C 69.8°F21.0°C 96% Calm Calm -- 29.81 in1009.5 mb 0.06 in1.5 mm 0.00 in0.0 mm 0.29 in7.4 mm
07:10 AM 71.0°F21.7°C 69.8°F21.0°C 96% Calm Calm -- 29.81 in1009.5 mb 0.06 in1.5 mm 0.00 in0.0 mm 0.29 in7.4 mm
07:05 AM 71.0°F21.7°C 69.8°F21.0°C 96% Calm Calm -- 29.81 in1009.5 mb 0.06 in1.5 mm 0.00 in0.0 mm 0.29 in7.4 mm
07:00 AM 71.0°F21.7°C 69.8°F21.0°C 96% Calm Calm -- 29.81 in1009.5 mb 0.06 in1.5 mm 0.00 in0.0 mm 0.29 in7.4 mm
06:55 AM 71.0°F21.7°C 69.8°F21.0°C 96% Calm Calm -- 29.81 in1009.5 mb 0.06 in1.5 mm 0.24 in6.1 mm 0.29 in7.4 mm
06:50 AM 71.0°F21.7°C 69.8°F21.0°C 96% Calm Calm -- 29.81 in1009.5 mb 0.04 in1.0 mm 0.12 in3.0 mm 0.27 in6.9 mm
06:45 AM 71.0°F21.7°C 69.8°F21.0°C 96% Calm Calm -- 29.81 in1009.5 mb 0.03 in0.8 mm 0.00 in0.0 mm 0.25 in6.4 mm
06:40 AM 71.0°F21.7°C 69.8°F21.0°C 96% Calm Calm -- 29.81 in1009.5 mb 0.04 in1.0 mm 0.24 in6.1 mm 0.25 in6.4 mm
06:35 AM 71.0°F21.7°C 69.8°F21.0°C 96% Calm Calm -- 29.81 in1009.5 mb 0.02 in0.5 mm 0.00 in0.0 mm 0.23 in5.8 mm
06:30 AM 71.0°F21.7°C 69.8°F21.0°C 96% Calm Calm -- 29.81 in1009.5 mb 0.02 in0.5 mm 0.00 in0.0 mm 0.23 in5.8 mm
06:25 AM 70.9°F21.6°C 69.7°F20.9°C 96% Calm Calm -- 29.80 in1009.1 mb 0.02 in0.5 mm 0.00 in0.0 mm 0.23 in5.8 mm
06:20 AM 70.9°F21.6°C 69.7°F20.9°C 96% Calm Calm -- 29.80 in1009.1 mb 0.02 in0.5 mm 0.00 in0.0 mm 0.23 in5.8 mm
06:15 AM 70.9°F21.6°C 69.7°F20.9°C 96% Calm Calm -- 29.80 in1009.1 mb 0.02 in0.5 mm 0.00 in0.0 mm 0.23 in5.8 mm
06:10 AM 70.9°F21.6°C 69.7°F20.9°C 96% Calm Calm -- 29.80 in1009.1 mb 0.02 in0.5 mm 0.00 in0.0 mm 0.23 in5.8 mm
06:05 AM 71.0°F21.7°C 69.8°F21.0°C 96% Calm Calm -- 29.80 in1009.1 mb 0.02 in0.5 mm 0.00 in0.0 mm 0.23 in5.8 mm
06:00 AM 71.0°F21.7°C 69.8°F21.0°C 96% Calm Calm -- 29.81 in1009.5 mb 0.03 in0.8 mm 0.00 in0.0 mm 0.23 in5.8 mm
05:55 AM 70.9°F21.6°C 69.7°F20.9°C 96% Calm Calm -- 29.80 in1009.1 mb 0.03 in0.8 mm 0.00 in0.0 mm 0.23 in5.8 mm
05:50 AM 70.9°F21.6°C 69.7°F20.9°C 96% Calm Calm -- 29.80 in1009.1 mb 0.03 in0.8 mm 0.12 in3.0 mm 0.23 in5.8 mm
05:45 AM 71.0°F21.7°C 69.8°F21.0°C 96% Calm Calm -- 29.81 in1009.5 mb 0.02 in0.5 mm 0.12 in3.0 mm 0.22 in5.6 mm
05:40 AM 71.0°F21.7°C 69.8°F21.0°C 96% Calm Calm -- 29.81 in1009.5 mb 0.01 in0.3 mm 0.00 in0.0 mm 0.21 in5.3 mm
05:35 AM 70.9°F21.6°C 69.4°F20.8°C 95% Calm Calm -- 29.81 in1009.5 mb 0.01 in0.3 mm 0.00 in0.0 mm 0.21 in5.3 mm
05:30 AM 71.0°F21.7°C 69.5°F20.8°C 95% Calm Calm -- 29.81 in1009.5 mb 0.01 in0.3 mm 0.00 in0.0 mm 0.21 in5.3 mm
05:25 AM 71.0°F21.7°C 69.5°F20.8°C 95% Calm Calm -- 29.81 in1009.5 mb 0.02 in0.5 mm 0.00 in0.0 mm 0.21 in5.3 mm
05:20 AM 71.0°F21.7°C 69.5°F20.8°C 95% Calm Calm -- 29.81 in1009.5 mb 0.03 in0.8 mm 0.00 in0.0 mm 0.21 in5.3 mm
05:15 AM 71.0°F21.7°C 69.5°F20.8°C 95% Calm Calm -- 29.80 in1009.1 mb 0.04 in1.0 mm 0.00 in0.0 mm 0.21 in5.3 mm
05:10 AM 70.9°F21.6°C 69.4°F20.8°C 95% Calm Calm -- 29.80 in1009.1 mb 0.05 in1.3 mm 0.00 in0.0 mm 0.21 in5.3 mm
05:05 AM 70.9°F21.6°C 69.4°F20.8°C 95% Calm Calm -- 29.81 in1009.5 mb 0.06 in1.5 mm 0.00 in0.0 mm 0.21 in5.3 mm
05:00 AM 71.0°F21.7°C 69.5°F20.8°C 95% Calm Calm -- 29.81 in1009.5 mb 0.06 in1.5 mm 0.00 in0.0 mm 0.20 in5.1 mm
04:55 AM 70.9°F21.6°C 69.4°F20.8°C 95% Calm Calm -- 29.81 in1009.5 mb 0.07 in1.8 mm 0.00 in0.0 mm 0.20 in5.1 mm
04:50 AM 71.0°F21.7°C 69.5°F20.8°C 95% Calm Calm -- 29.81 in1009.5 mb 0.08 in2.0 mm 0.00 in0.0 mm 0.20 in5.1 mm
04:45 AM 71.0°F21.7°C 69.5°F20.8°C 95% Calm Calm 4.0 mph6.4 kmh 29.81 in1009.5 mb 0.10 in2.5 mm 0.00 in0.0 mm 0.20 in5.1 mm
04:40 AM 70.9°F21.6°C 69.4°F20.8°C 95% 2.0 mph SSW3.2 kmh SSW 5.0 mph8.0 kmh 29.81 in1009.5 mb 0.11 in2.8 mm 0.00 in0.0 mm 0.20 in5.1 mm
04:35 AM 70.9°F21.6°C 69.4°F20.8°C 95% 2.0 mph SSW3.2 kmh SSW 5.0 mph8.0 kmh 29.81 in1009.5 mb 0.12 in3.0 mm 0.00 in0.0 mm 0.20 in5.1 mm
04:30 AM 71.0°F21.7°C 69.5°F20.8°C 95% 3.0 mph SSW4.8 kmh SSW 7.0 mph11.3 kmh 29.81 in1009.5 mb 0.12 in3.0 mm 0.12 in3.0 mm 0.20 in5.1 mm
04:25 AM 71.0°F21.7°C 69.5°F20.8°C 95% 4.0 mph S6.4 kmh S 8.0 mph12.9 kmh 29.81 in1009.5 mb 0.11 in2.8 mm 0.12 in3.0 mm 0.19 in4.8 mm
04:20 AM 71.0°F21.7°C 69.5°F20.8°C 95% 6.0 mph SSW9.7 kmh SSW 9.0 mph14.5 kmh 29.81 in1009.5 mb 0.10 in2.5 mm 0.00 in0.0 mm 0.18 in4.6 mm
04:15 AM 71.0°F21.7°C 69.5°F20.8°C 95% 5.0 mph SSW8.0 kmh SSW 9.0 mph14.5 kmh 29.81 in1009.5 mb 0.10 in2.5 mm 0.12 in3.0 mm 0.17 in4.3 mm
04:10 AM 70.9°F21.6°C 69.4°F20.8°C 95% 2.0 mph SSW3.2 kmh SSW 6.0 mph9.7 kmh 29.81 in1009.5 mb 0.09 in2.3 mm 0.12 in3.0 mm 0.16 in4.1 mm
04:05 AM 71.0°F21.7°C 69.5°F20.8°C 95% 2.0 mph SW3.2 kmh SW 6.0 mph9.7 kmh 29.81 in1009.5 mb 0.08 in2.0 mm 0.12 in3.0 mm 0.15 in3.8 mm
04:00 AM 71.0°F21.7°C 69.5°F20.8°C 95% 3.0 mph SSW4.8 kmh SSW 6.0 mph9.7 kmh 29.81 in1009.5 mb 0.07 in1.8 mm 0.00 in0.0 mm 0.14 in3.6 mm
03:55 AM 71.0°F21.7°C 69.5°F20.8°C 95% 2.0 mph SSW3.2 kmh SSW 5.0 mph8.0 kmh 29.80 in1009.1 mb 0.07 in1.8 mm 0.12 in3.0 mm 0.13 in3.3 mm
03:50 AM 71.1°F21.7°C 69.6°F20.9°C 95% 1.0 mph SSW1.6 kmh SSW 6.0 mph9.7 kmh 29.81 in1009.5 mb 0.06 in1.5 mm 0.00 in0.0 mm 0.12 in3.0 mm
03:45 AM 71.1°F21.7°C 69.3°F20.7°C 94% 1.0 mph SW1.6 kmh SW 5.0 mph8.0 kmh 29.82 in1009.8 mb 0.06 in1.5 mm 0.00 in0.0 mm 0.10 in2.5 mm
03:40 AM 71.2°F21.8°C 69.4°F20.8°C 94% 3.0 mph SW4.8 kmh SW 6.0 mph9.7 kmh 29.82 in1009.8 mb 0.08 in2.0 mm 0.00 in0.0 mm 0.09 in2.3 mm
03:35 AM 71.3°F21.8°C 69.5°F20.8°C 94% 3.0 mph SSW4.8 kmh SSW 7.0 mph11.3 kmh 29.82 in1009.8 mb 0.08 in2.0 mm 0.00 in0.0 mm 0.08 in2.0 mm
03:30 AM 71.3°F21.8°C 69.5°F20.8°C 94% 4.0 mph SSW6.4 kmh SSW 9.0 mph14.5 kmh 29.82 in1009.8 mb 0.08 in2.0 mm 0.00 in0.0 mm 0.08 in2.0 mm
03:25 AM 71.4°F21.9°C 69.6°F20.9°C 94% 1.0 mph SSW1.6 kmh SSW 5.0 mph8.0 kmh 29.82 in1009.8 mb 0.08 in2.0 mm 0.00 in0.0 mm 0.08 in2.0 mm
03:20 AM 71.4°F21.9°C 69.6°F20.9°C 94% 2.0 mph SW3.2 kmh SW 5.0 mph8.0 kmh 29.82 in1009.8 mb 0.08 in2.0 mm 0.12 in3.0 mm 0.08 in2.0 mm
03:15 AM 71.6°F22.0°C 70.1°F21.2°C 95% 1.0 mph SSW1.6 kmh SSW 4.0 mph6.4 kmh 29.82 in1009.8 mb 0.07 in1.8 mm 0.00 in0.0 mm 0.07 in1.8 mm
03:10 AM 71.7°F22.1°C 70.2°F21.2°C 95% 2.0 mph SSW3.2 kmh SSW 5.0 mph8.0 kmh 29.81 in1009.5 mb 0.07 in1.8 mm 0.00 in0.0 mm 0.07 in1.8 mm
03:05 AM 71.9°F22.2°C 70.4°F21.3°C 95% 3.0 mph SSW4.8 kmh SSW 6.0 mph9.7 kmh 29.82 in1009.8 mb 0.07 in1.8 mm 0.00 in0.0 mm 0.07 in1.8 mm
03:00 AM 72.0°F22.2°C 70.5°F21.4°C 95% 2.0 mph SSW3.2 kmh SSW 4.0 mph6.4 kmh 29.82 in1009.8 mb 0.07 in1.8 mm 0.01 in0.3 mm 0.07 in1.8 mm
02:55 AM 72.1°F22.3°C 70.6°F21.4°C 95% Calm Calm -- 29.81 in1009.5 mb 0.06 in1.5 mm 0.00 in0.0 mm 0.06 in1.5 mm
02:50 AM 72.2°F22.3°C 70.7°F21.5°C 95% 1.0 mph SSW1.6 kmh SSW 6.0 mph9.7 kmh 29.82 in1009.8 mb 0.06 in1.5 mm 0.24 in6.1 mm 0.06 in1.5 mm
02:45 AM 72.4°F22.4°C 70.6°F21.4°C 94% 5.0 mph SW8.0 kmh SW 16.0 mph25.7 kmh 29.83 in1010.2 mb 0.04 in1.0 mm 0.36 in9.1 mm 0.04 in1.0 mm
02:40 AM 72.4°F22.4°C 70.9°F21.6°C 95% 8.0 mph SSW12.9 kmh SSW 13.0 mph20.9 kmh 29.84 in1010.5 mb 0.01 in0.3 mm 0.12 in3.0 mm 0.01 in0.3 mm
02:35 AM 72.3°F22.4°C 70.8°F21.6°C 95% 7.0 mph SSW11.3 kmh SSW 13.0 mph20.9 kmh 29.84 in1010.5 mb 0.00 in0.0 mm 0.00 in0.0 mm 0.00 in0.0 mm
02:30 AM 72.2°F22.3°C 70.7°F21.5°C 95% 5.0 mph SSW8.0 kmh SSW 9.0 mph14.5 kmh 29.84 in1010.5 mb 0.00 in0.0 mm 0.00 in0.0 mm 0.00 in0.0 mm
02:25 AM 72.1°F22.3°C 70.6°F21.4°C 95% 5.0 mph SSW8.0 kmh SSW 10.0 mph16.1 kmh 29.83 in1010.2 mb 0.00 in0.0 mm 0.00 in0.0 mm 0.00 in0.0 mm
02:20 AM 72.1°F22.3°C 70.6°F21.4°C 95% 3.6 mph SSW5.8 kmh SSW 8.0 mph12.9 kmh 29.83 in1010.2 mb 0.00 in0.0 mm 0.00 in0.0 mm 0.00 in0.0 mm
02:15 AM 72.0°F22.2°C 70.5°F21.4°C 95% 3.4 mph SSW5.5 kmh SSW 8.0 mph12.9 kmh 29.83 in1010.2 mb 0.00 in0.0 mm 0.00 in0.0 mm 0.00 in0.0 mm
02:10 AM 72.0°F22.2°C 70.5°F21.4°C 95% 0.1 mph SW0.2 kmh SW 2.0 mph3.2 kmh 29.83 in1010.2 mb 0.00 in0.0 mm 0.00 in0.0 mm 0.00 in0.0 mm
02:05 AM 72.0°F22.2°C 70.5°F21.4°C 95% Calm Calm -- 29.83 in1010.2 mb 0.00 in0.0 mm 0.00 in0.0 mm 0.00 in0.0 mm
02:00 AM 71.9°F22.2°C 70.4°F21.3°C 95% 1.0 mph SW1.6 kmh SW 4.0 mph6.4 kmh 29.82 in1009.8 mb 0.00 in0.0 mm 0.00 in0.0 mm 0.00 in0.0 mm
01:55 AM 71.9°F22.2°C 70.4°F21.3°C 95% Calm Calm 3.0 mph4.8 kmh 29.82 in1009.8 mb 0.00 in0.0 mm 0.00 in0.0 mm 0.00 in0.0 mm
01:50 AM 71.9°F22.2°C 70.4°F21.3°C 95% 1.0 mph SSW1.6 kmh SSW 4.0 mph6.4 kmh 29.82 in1009.8 mb 0.00 in0.0 mm 0.00 in0.0 mm 0.00 in0.0 mm
01:45 AM 71.9°F22.2°C 70.7°F21.5°C 96% 1.0 mph SSW1.6 kmh SSW 3.0 mph4.8 kmh 29.83 in1010.2 mb 0.00 in0.0 mm 0.00 in0.0 mm 0.00 in0.0 mm
01:40 AM 71.8°F22.1°C 70.6°F21.4°C 96% 1.0 mph SSW1.6 kmh SSW 5.0 mph8.0 kmh 29.83 in1010.2 mb 0.00 in0.0 mm 0.00 in0.0 mm 0.00 in0.0 mm
01:35 AM 71.6°F22.0°C 70.4°F21.3°C 96% 3.0 mph SSW4.8 kmh SSW 9.0 mph14.5 kmh 29.84 in1010.5 mb 0.00 in0.0 mm 0.00 in0.0 mm 0.00 in0.0 mm
01:30 AM 71.5°F21.9°C 70.0°F21.1°C 95% 0.3 mph SSW0.5 kmh SSW 3.0 mph4.8 kmh 29.84 in1010.5 mb 0.00 in0.0 mm 0.00 in0.0 mm 0.00 in0.0 mm
01:25 AM 71.5°F21.9°C 70.0°F21.1°C 95% Calm Calm -- 29.83 in1010.2 mb 0.00 in0.0 mm 0.00 in0.0 mm 0.00 in0.0 mm
01:20 AM 71.4°F21.9°C 69.9°F21.1°C 95% Calm Calm -- 29.83 in1010.2 mb 0.00 in0.0 mm 0.00 in0.0 mm 0.00 in0.0 mm
01:15 AM 71.4°F21.9°C 69.9°F21.1°C 95% Calm Calm -- 29.83 in1010.2 mb 0.00 in0.0 mm 0.00 in0.0 mm 0.00 in0.0 mm
01:10 AM 71.4°F21.9°C 69.9°F21.1°C 95% Calm Calm -- 29.83 in1010.2 mb 0.00 in0.0 mm 0.00 in0.0 mm 0.00 in0.0 mm
01:05 AM 71.4°F21.9°C 69.9°F21.1°C 95% Calm Calm -- 29.83 in1010.2 mb 0.00 in0.0 mm 0.00 in0.0 mm 0.00 in0.0 mm
01:00 AM 71.4°F21.9°C 69.9°F21.1°C 95% Calm Calm -- 29.83 in1010.2 mb 0.00 in0.0 mm 0.00 in0.0 mm 0.00 in0.0 mm
12:55 AM 71.3°F21.8°C 69.8°F21.0°C 95% Calm Calm -- 29.83 in1010.2 mb 0.00 in0.0 mm 0.00 in0.0 mm 0.00 in0.0 mm
12:50 AM 71.3°F21.8°C 69.8°F21.0°C 95% Calm Calm 1.0 mph1.6 kmh 29.83 in1010.2 mb 0.00 in0.0 mm 0.00 in0.0 mm 0.00 in0.0 mm
12:45 AM 71.3°F21.8°C 69.8°F21.0°C 95% Calm Calm -- 29.84 in1010.5 mb 0.00 in0.0 mm 0.00 in0.0 mm 0.00 in0.0 mm
12:40 AM 71.3°F21.8°C 69.8°F21.0°C 95% Calm Calm -- 29.84 in1010.5 mb 0.00 in0.0 mm 0.00 in0.0 mm 0.00 in0.0 mm
12:35 AM 71.3°F21.8°C 69.8°F21.0°C 95% Calm Calm -- 29.84 in1010.5 mb 0.00 in0.0 mm 0.00 in0.0 mm 0.00 in0.0 mm
12:30 AM 71.4°F21.9°C 69.9°F21.1°C 95% Calm Calm -- 29.84 in1010.5 mb 0.00 in0.0 mm 0.00 in0.0 mm 0.00 in0.0 mm
12:25 AM 71.3°F21.8°C 69.8°F21.0°C 95% Calm Calm 6.0 mph9.7 kmh 29.84 in1010.5 mb 0.00 in0.0 mm 0.00 in0.0 mm 0.00 in0.0 mm
12:20 AM 71.2°F21.8°C 69.7°F20.9°C 95% 2.1 mph SSW3.4 kmh SSW 13.0 mph20.9 kmh 29.85 in1010.8 mb 0.00 in0.0 mm 0.00 in0.0 mm 0.00 in0.0 mm
12:15 AM 71.2°F21.8°C 69.7°F20.9°C 95% 5.1 mph S8.2 kmh S 13.0 mph20.9 kmh 29.86 in1011.2 mb 0.00 in0.0 mm 0.00 in0.0 mm 0.00 in0.0 mm
12:10 AM 71.2°F21.8°C 69.7°F20.9°C 95% Calm Calm -- 29.86 in1011.2 mb 0.00 in0.0 mm 0.00 in0.0 mm 0.00 in0.0 mm
12:05 AM 71.0°F21.7°C 69.5°F20.8°C 95% Calm Calm -- 29.85 in1010.8 mb 0.00 in0.0 mm 0.00 in0.0 mm 0.00 in0.0 mm
12:00 AM 71.1°F21.7°C 69.6°F20.9°C 95% Calm Calm 4.0 mph6.4 kmh 29.84 in1010.5 mb 0.00 in0.0 mm 0.00 in0.0 mm 0.35 in8.9 mm